Time;durP1;ratioP1;P1;durP2;ratioP2;P2;SDS_P1;SDS_P2;PMS_P1;PMS_P2;Temp;Humidity;BMP_temperature;BMP_pressure;BME280_temperature;BME280_humidity;BME280_pressure;Samples;Min_cycle;Max_cycle;Signal;HPM_P1;HPM_P2
2021/11/30 00:00:06;;;;;;;5.95;4.85;;;5.20;99.90;;;;;;4973417;28;20751;-83
2021/11/30 00:02:32;;;;;;;10.60;4.50;;;5.20;99.90;;;;;;4974578;28;20170;-83
2021/11/30 00:04:57;;;;;;;11.32;5.15;;;5.20;99.90;;;;;;4957005;28;20174;-83
2021/11/30 00:07:23;;;;;;;8.90;4.63;;;5.40;99.90;;;;;;4974002;28;20190;-83
2021/11/30 00:12:17;;;;;;;6.63;4.25;;;5.40;99.90;;;;;;4974004;28;20174;-83
2021/11/30 00:14:46;;;;;;;6.80;4.70;;;5.40;99.90;;;;;;4974126;28;20201;-84
2021/11/30 00:17:12;;;;;;;7.43;3.88;;;5.20;99.90;;;;;;4956968;28;20659;-84
2021/11/30 00:19:39;;;;;;;7.32;4.30;;;5.30;99.90;;;;;;4974309;28;20169;-83
2021/11/30 00:22:06;;;;;;;5.35;3.72;;;5.50;99.90;;;;;;4974182;28;20711;-81
2021/11/30 00:24:32;;;;;;;4.35;3.75;;;5.40;99.90;;;;;;4973984;28;20644;-83
2021/11/30 00:26:58;;;;;;;8.07;3.65;;;5.40;99.90;;;;;;4974155;28;20262;-83
2021/11/30 00:29:24;;;;;;;3.90;3.30;;;5.50;99.90;;;;;;4974275;28;20252;-84
2021/11/30 00:31:50;;;;;;;9.38;3.72;;;5.40;99.90;;;;;;4973979;28;20241;-83
2021/11/30 00:34:16;;;;;;;3.47;3.00;;;5.30;99.90;;;;;;4973733;28;20208;-83
2021/11/30 00:36:41;;;;;;;15.13;3.55;;;5.40;99.90;;;;;;4973899;28;20189;-84
2021/11/30 00:39:07;;;;;;;3.28;2.70;;;5.40;99.90;;;;;;4973929;28;20181;-83
2021/11/30 00:41:34;;;;;;;5.28;2.78;;;5.40;99.90;;;;;;4974290;28;20241;-82
2021/11/30 00:43:59;;;;;;;8.50;3.63;;;5.50;99.90;;;;;;4974136;28;20285;-83
2021/11/30 00:46:36;;;;;;;8.18;3.05;;;5.50;99.90;;;;;;4974256;28;20623;-81
2021/11/30 00:49:04;;;;;;;9.45;3.15;;;5.40;99.90;;;;;;4957073;28;20651;-83
2021/11/30 00:51:31;;;;;;;13.65;2.75;;;5.50;99.90;;;;;;4974070;28;20261;-83
2021/11/30 00:53:57;;;;;;;4.82;2.75;;;5.50;99.90;;;;;;4973742;28;20256;-83
2021/11/30 00:56:23;;;;;;;2.65;2.10;;;5.50;99.90;;;;;;4973710;28;20190;-83
2021/11/30 00:58:49;;;;;;;2.38;2.10;;;5.50;99.90;;;;;;4972780;28;20200;-83
2021/11/30 01:01:15;;;;;;;4.40;3.30;;;5.50;99.90;;;;;;4973780;28;20174;-83
2021/11/30 01:03:41;;;;;;;7.50;2.22;;;5.40;99.90;;;;;;4973767;28;20174;-84
2021/11/30 01:06:07;;;;;;;3.80;2.22;;;5.40;99.90;;;;;;4973628;28;20182;-83
2021/11/30 01:08:33;;;;;;;3.97;2.10;;;5.50;99.90;;;;;;4973691;28;20617;-82
2021/11/30 01:11:00;;;;;;;3.10;2.30;;;5.40;99.90;;;;;;4974153;28;20205;-83
2021/11/30 01:13:29;;;;;;;6.97;2.42;;;5.50;99.90;;;;;;4976901;28;20248;-82
2021/11/30 01:15:55;;;;;;;2.72;2.17;;;5.50;99.90;;;;;;4976836;28;20217;-83
2021/11/30 01:18:21;;;;;;;3.15;2.10;;;5.60;99.90;;;;;;4977119;28;20660;-83
2021/11/30 01:20:46;;;;;;;3.40;2.42;;;5.60;99.90;;;;;;4976803;28;20619;-83
2021/11/30 01:23:12;;;;;;;6.18;2.28;;;5.70;99.90;;;;;;4976906;28;20186;-84
2021/11/30 01:25:38;;;;;;;3.08;2.05;;;5.50;99.90;;;;;;4976673;28;20194;-83
2021/11/30 01:28:04;;;;;;;8.77;2.78;;;5.40;99.90;;;;;;4976779;28;20170;-84
2021/11/30 01:30:30;;;;;;;6.18;2.15;;;5.30;99.90;;;;;;4976669;28;20252;-83
2021/11/30 01:32:56;;;;;;;2.55;2.10;;;5.20;99.90;;;;;;4976573;28;20278;-83
2021/11/30 01:35:22;;;;;;;2.50;2.28;;;5.10;99.90;;;;;;4959198;28;20584;-83
2021/11/30 01:37:48;;;;;;;3.03;2.30;;;5.20;99.90;;;;;;4976627;28;20256;-83
2021/11/30 01:40:19;;;;;;;2.15;1.90;;;5.30;99.90;;;;;;4976662;28;20249;-81
2021/11/30 01:42:47;;;;;;;5.60;2.72;;;5.40;99.90;;;;;;4976469;28;20170;-82
2021/11/30 01:50:32;;;;;;;3.38;2.40;;;5.20;99.90;;;;;;4991542;28;20166;-80
2021/11/30 01:52:57;;;;;;;6.93;2.70;;;5.30;99.90;;;;;;4993987;28;20218;-82
2021/11/30 01:55:23;;;;;;;7.50;2.90;;;5.40;99.90;;;;;;4976358;28;20614;-83
2021/11/30 01:57:51;;;;;;;4.80;3.00;;;5.30;99.90;;;;;;4976394;28;20178;-83
2021/11/30 02:00:19;;;;;;;7.93;2.50;;;5.30;99.90;;;;;;4976239;28;20220;-82
2021/11/30 02:02:45;;;;;;;5.53;2.67;;;5.40;99.90;;;;;;4976205;28;20173;-83
2021/11/30 02:05:11;;;;;;;4.80;2.53;;;5.50;99.90;;;;;;4976274;28;20257;-83
2021/11/30 02:07:39;;;;;;;5.68;2.60;;;5.40;99.90;;;;;;4976106;28;20535;-82
2021/11/30 02:10:07;;;;;;;6.30;1.80;;;5.30;99.90;;;;;;4976329;28;20184;-82
2021/11/30 02:12:34;;;;;;;4.18;2.55;;;5.30;99.90;;;;;;4976095;28;20170;-82
2021/11/30 02:15:01;;;;;;;4.20;2.75;;;5.30;99.90;;;;;;4975730;28;20263;-83
2021/11/30 02:17:27;;;;;;;3.60;2.58;;;5.40;99.90;;;;;;4975534;28;20186;-82
2021/11/30 02:19:58;;;;;;;8.75;2.60;;;5.60;99.90;;;;;;4958625;28;20181;-83
2021/11/30 02:22:24;;;;;;;3.35;2.67;;;5.50;99.90;;;;;;4957310;28;20178;-82
2021/11/30 02:24:50;;;;;;;4.22;2.92;;;5.50;99.90;;;;;;4975356;28;20620;-83
2021/11/30 02:27:17;;;;;;;3.60;2.70;;;5.60;99.90;;;;;;4975473;28;20186;-77
2021/11/30 02:29:42;;;;;;;3.95;2.85;;;5.50;99.90;;;;;;4958749;28;20184;-82
2021/11/30 02:32:08;;;;;;;10.75;3.85;;;5.60;99.90;;;;;;4976027;28;20170;-83
2021/11/30 02:34:34;;;;;;;3.00;2.45;;;5.60;99.90;;;;;;4975484;28;20538;-84
2021/11/30 02:37:07;;;;;;;3.75;3.08;;;5.60;99.90;;;;;;4975491;28;20193;-83
2021/11/30 02:39:35;;;;;;;3.08;2.78;;;5.70;99.90;;;;;;4975468;28;20273;-83
2021/11/30 02:42:03;;;;;;;4.65;3.40;;;5.70;99.90;;;;;;4975313;28;20176;-81
2021/11/30 02:44:31;;;;;;;5.90;2.83;;;5.80;99.90;;;;;;4958165;28;20595;-83
2021/11/30 02:47:00;;;;;;;4.93;3.28;;;5.90;99.90;;;;;;4975225;28;20273;-79
2021/11/30 02:49:34;;;;;;;6.68;4.10;;;5.80;99.90;;;;;;4975179;28;20667;-82
2021/11/30 02:52:06;;;;;;;8.18;3.75;;;5.90;99.90;;;;;;4975094;28;20167;-82
2021/11/30 02:54:33;;;;;;;4.18;3.30;;;5.80;99.90;;;;;;4974767;28;20205;-82
2021/11/30 02:57:00;;;;;;;7.90;3.47;;;5.70;99.90;;;;;;4975103;28;20182;-83
2021/11/30 02:59:28;;;;;;;5.88;4.07;;;5.70;99.90;;;;;;4975004;28;20205;-83
2021/11/30 03:02:01;;;;;;;8.88;3.85;;;5.70;99.90;;;;;;4974804;28;20166;-84
2021/11/30 03:04:27;;;;;;;7.07;4.43;;;5.80;99.90;;;;;;4974687;28;20539;-84
2021/11/30 03:06:57;;;;;;;7.53;4.43;;;5.90;99.90;;;;;;4957058;28;20284;-83
2021/11/30 03:09:26;;;;;;;4.80;3.83;;;5.90;99.90;;;;;;4974821;28;20648;-84
2021/11/30 03:11:53;;;;;;;9.90;3.95;;;5.90;99.90;;;;;;4974942;28;20188;-84
2021/11/30 03:14:18;;;;;;;7.43;4.88;;;5.90;99.90;;;;;;4974746;28;20216;-84
2021/11/30 03:16:47;;;;;;;6.57;4.50;;;6.00;99.90;;;;;;4974772;28;20178;-84
2021/11/30 03:19:15;;;;;;;7.43;4.72;;;6.00;99.90;;;;;;4974635;28;20177;-84
2021/11/30 03:21:42;;;;;;;4.78;4.28;;;6.00;99.90;;;;;;4974775;28;20257;-84
2021/11/30 03:24:08;;;;;;;5.85;4.47;;;6.10;99.90;;;;;;4957239;28;20186;-83
2021/11/30 03:26:33;;;;;;;10.10;5.00;;;6.10;99.90;;;;;;4974358;28;20541;-84
2021/11/30 03:28:59;;;;;;;5.70;5.10;;;6.10;99.90;;;;;;4974635;28;20170;-85
2021/11/30 03:34:04;;;;;;;14.43;5.80;;;6.20;99.90;;;;;;4974313;28;20688;-83
2021/11/30 03:36:33;;;;;;;16.67;6.68;;;6.20;99.90;;;;;;4974542;28;20190;-84
2021/11/30 03:39:00;;;;;;;6.50;5.82;;;6.20;99.90;;;;;;4957063;28;20177;-83
2021/11/30 03:41:28;;;;;;;10.48;7.20;;;6.20;99.90;;;;;;4974546;28;20158;-84
2021/11/30 03:43:53;;;;;;;10.45;5.88;;;6.20;99.90;;;;;;4974604;28;20625;-84
2021/11/30 03:46:19;;;;;;;10.20;6.35;;;6.30;99.90;;;;;;4974310;28;20240;-84
2021/11/30 03:48:45;;;;;;;8.80;7.53;;;6.30;99.90;;;;;;4974155;28;20181;-84
2021/11/30 03:51:11;;;;;;;11.98;6.40;;;6.30;99.90;;;;;;4974305;28;20166;-84
2021/11/30 03:53:37;;;;;;;11.10;7.05;;;6.40;99.90;;;;;;4974249;28;20205;-84
2021/11/30 03:56:03;;;;;;;10.23;7.47;;;6.30;99.90;;;;;;4974134;28;20225;-83
2021/11/30 03:58:28;;;;;;;10.05;8.00;;;6.30;99.90;;;;;;4974314;28;20170;-84
2021/11/30 04:00:54;;;;;;;9.93;8.68;;;6.30;99.90;;;;;;4974292;28;20166;-84
2021/11/30 04:03:22;;;;;;;9.32;8.18;;;6.30;99.90;;;;;;4974080;28;20170;-83
2021/11/30 04:05:48;;;;;;;10.80;7.95;;;6.40;99.90;;;;;;4974151;28;20596;-84
2021/11/30 04:08:13;;;;;;;11.88;8.85;;;6.40;99.90;;;;;;4957218;28;20237;-84
2021/11/30 04:10:39;;;;;;;13.73;8.80;;;6.40;99.90;;;;;;4975891;28;20253;-84
2021/11/30 04:13:05;;;;;;;9.10;7.97;;;6.40;99.90;;;;;;4979454;28;20190;-83
2021/11/30 04:15:30;;;;;;;11.27;9.10;;;6.40;99.90;;;;;;4998350;28;20209;-80
2021/11/30 04:17:56;;;;;;;11.95;9.75;;;6.50;99.90;;;;;;4986260;28;20173;-82
2021/11/30 04:20:22;;;;;;;10.50;9.40;;;6.50;99.90;;;;;;4956833;28;20624;-84
2021/11/30 04:22:47;;;;;;;16.83;9.32;;;6.40;99.90;;;;;;4973759;28;20188;-83
2021/11/30 04:25:13;;;;;;;14.07;9.57;;;6.40;99.90;;;;;;4973910;28;20176;-83
2021/11/30 04:27:40;;;;;;;11.35;9.60;;;6.50;99.90;;;;;;4973798;28;20169;-83
2021/11/30 04:30:07;;;;;;;11.13;9.77;;;6.70;99.90;;;;;;4974259;28;20232;-84
2021/11/30 04:32:34;;;;;;;10.20;9.20;;;6.80;99.90;;;;;;4973802;28;20170;-84
2021/11/30 04:34:59;;;;;;;12.30;9.68;;;6.80;99.90;;;;;;4974584;28;20193;-84
2021/11/30 04:37:25;;;;;;;12.57;10.00;;;6.80;99.90;;;;;;4973932;28;20652;-83
2021/11/30 04:39:51;;;;;;;11.18;9.85;;;6.90;99.90;;;;;;4974228;28;20174;-83
2021/11/30 04:42:16;;;;;;;11.20;10.10;;;6.90;99.90;;;;;;4973930;28;20173;-83
2021/11/30 04:44:57;;;;;;;11.68;9.45;;;6.90;99.90;;;;;;4973663;28;20621;-84
2021/11/30 04:47:27;;;;;;;21.20;10.43;;;6.80;99.90;;;;;;4976246;28;20190;-83
2021/11/30 04:52:18;;;;;;;11.23;9.77;;;6.70;99.90;;;;;;4977414;28;20652;-84
2021/11/30 04:54:43;;;;;;;16.15;10.65;;;6.70;99.90;;;;;;4977313;28;20209;-83
2021/11/30 04:57:09;;;;;;;19.42;11.65;;;6.80;99.90;;;;;;4977661;28;20545;-84
2021/11/30 04:59:35;;;;;;;13.65;11.18;;;6.80;99.90;;;;;;4977344;28;20180;-82
2021/11/30 05:02:01;;;;;;;17.13;11.10;;;6.80;99.90;;;;;;4977161;28;20232;-82
2021/11/30 05:04:27;;;;;;;15.25;11.35;;;6.80;99.90;;;;;;4977153;28;20241;-83
2021/11/30 05:06:53;;;;;;;17.27;11.90;;;6.80;99.90;;;;;;4977169;28;20181;-83
2021/11/30 05:09:19;;;;;;;12.93;11.23;;;6.90;99.90;;;;;;4977167;28;20170;-83
2021/11/30 05:11:44;;;;;;;17.75;11.45;;;6.90;99.90;;;;;;4977195;28;20177;-83
2021/11/30 05:14:10;;;;;;;18.45;11.38;;;6.90;99.90;;;;;;4975890;28;20686;-84
2021/11/30 05:16:36;;;;;;;12.43;11.13;;;6.90;99.90;;;;;;4977012;28;20272;-83
2021/11/30 05:19:02;;;;;;;16.73;12.45;;;7.00;99.90;;;;;;4977172;28;20181;-84
2021/11/30 05:21:27;;;;;;;17.02;10.55;;;7.10;99.90;;;;;;4977054;28;20173;-82
2021/11/30 05:24:01;;;;;;;14.85;11.07;;;7.00;99.90;;;;;;4977271;28;20177;-82
2021/11/30 05:26:27;;;;;;;12.02;10.80;;;7.10;99.90;;;;;;4977354;28;20612;-84
2021/11/30 05:28:53;;;;;;;16.80;12.70;;;7.10;99.90;;;;;;4977218;28;20170;-84
2021/11/30 05:31:19;;;;;;;14.95;11.60;;;7.10;99.90;;;;;;4976767;28;20253;-82
2021/11/30 05:33:47;;;;;;;14.60;11.85;;;7.00;99.90;;;;;;4976775;28;20289;-84
2021/11/30 05:36:13;;;;;;;13.48;10.68;;;6.90;99.90;;;;;;4977055;28;20229;-83
2021/11/30 05:38:39;;;;;;;16.83;11.10;;;7.10;99.90;;;;;;4977076;28;20181;-82
2021/11/30 05:41:05;;;;;;;17.88;11.48;;;7.10;99.90;;;;;;4976869;28;20174;-82
2021/11/30 05:43:31;;;;;;;14.07;11.23;;;7.10;99.90;;;;;;4976932;28;20170;-83
2021/11/30 05:45:57;;;;;;;13.52;11.32;;;7.20;99.90;;;;;;4976941;28;20178;-83
2021/11/30 05:48:23;;;;;;;16.85;11.93;;;7.30;99.90;;;;;;4976855;28;20174;-82
2021/11/30 05:50:48;;;;;;;13.55;11.50;;;7.40;99.90;;;;;;4976566;28;20169;-83
2021/11/30 05:53:14;;;;;;;13.35;10.70;;;7.40;99.90;;;;;;4975260;28;20533;-84
2021/11/30 05:55:40;;;;;;;10.65;9.55;;;7.30;99.90;;;;;;4976463;28;20256;-84
2021/11/30 05:58:06;;;;;;;14.38;11.43;;;7.20;99.90;;;;;;4976480;28;20174;-83
2021/11/30 06:00:33;;;;;;;12.85;9.60;;;7.30;99.90;;;;;;4975978;28;20178;-83
2021/11/30 06:03:20;;;;;;;12.63;10.93;;;7.30;99.90;;;;;;4976123;28;20151;-84
2021/11/30 06:05:46;;;;;;;16.52;10.45;;;7.20;99.90;;;;;;4976084;28;20201;-84
2021/11/30 06:08:12;;;;;;;9.98;9.05;;;7.30;99.90;;;;;;4976287;28;20165;-82
2021/11/30 06:10:37;;;;;;;21.88;11.77;;;7.40;99.90;;;;;;4976180;28;20632;-84
2021/11/30 06:13:03;;;;;;;11.60;8.85;;;7.40;99.90;;;;;;4958720;28;20644;-85
2021/11/30 06:15:29;;;;;;;15.88;10.48;;;7.40;99.90;;;;;;4975816;28;20651;-84
2021/11/30 06:17:54;;;;;;;10.52;9.45;;;7.40;99.90;;;;;;4976117;28;20632;-83
2021/11/30 06:22:53;;;;;;;11.80;9.50;;;7.40;99.90;;;;;;4958127;28;20190;-84
2021/11/30 06:25:19;;;;;;;11.38;9.13;;;7.40;99.90;;;;;;4975429;28;20637;-84
2021/11/30 06:27:45;;;;;;;9.45;8.55;;;7.40;99.90;;;;;;4975683;28;20257;-84
2021/11/30 06:30:12;;;;;;;10.25;8.50;;;7.40;99.90;;;;;;4975573;28;20644;-85
2021/11/30 06:32:38;;;;;;;9.02;8.23;;;7.40;99.90;;;;;;4975381;28;20173;-84
2021/11/30 06:35:05;;;;;;;10.65;9.05;;;7.40;99.90;;;;;;4959998;28;20228;-83
2021/11/30 06:37:31;;;;;;;9.20;8.32;;;7.40;99.90;;;;;;4979143;28;20552;-83
2021/11/30 06:39:58;;;;;;;8.80;7.78;;;7.50;99.90;;;;;;4998268;28;20181;-82
2021/11/30 06:42:24;;;;;;;11.00;8.70;;;7.50;99.90;;;;;;4983031;28;20166;-84
2021/11/30 06:44:50;;;;;;;10.95;9.05;;;7.70;99.90;;;;;;4958576;28;20170;-84
2021/11/30 06:47:16;;;;;;;10.85;9.35;;;7.80;99.90;;;;;;4975476;28;20257;-84
2021/11/30 06:49:42;;;;;;;8.90;8.00;;;7.80;99.90;;;;;;4974865;28;20269;-83
2021/11/30 06:52:09;;;;;;;11.95;8.38;;;7.90;99.90;;;;;;4976063;28;20174;-84
2021/11/30 06:54:35;;;;;;;9.85;7.85;;;7.90;99.90;;;;;;4976647;28;20292;-83
2021/11/30 06:57:00;;;;;;;10.13;7.72;;;7.90;99.90;;;;;;4975548;28;20288;-83
2021/11/30 06:59:28;;;;;;;13.00;8.07;;;7.90;99.90;;;;;;4975734;28;20209;-83
2021/11/30 07:01:54;;;;;;;7.80;6.85;;;7.80;99.90;;;;;;4975343;28;20851;-84
2021/11/30 07:04:21;;;;;;;8.45;7.38;;;7.90;99.90;;;;;;4975320;28;20181;-83
2021/11/30 07:14:11;;;;;;;8.57;6.55;;;8.00;99.90;;;;;;4975052;28;20216;-86
2021/11/30 07:16:37;;;;;;;7.03;6.43;;;8.00;99.90;;;;;;4975028;28;20182;-85
2021/11/30 07:19:04;;;;;;;5.30;4.80;;;8.00;99.90;;;;;;4974505;28;20166;-86
2021/11/30 07:21:30;;;;;;;6.22;5.63;;;8.00;99.90;;;;;;4975646;28;20253;-87
2021/11/30 07:23:55;;;;;;;5.40;5.00;;;8.10;99.90;;;;;;4975185;28;20539;-85
2021/11/30 07:26:22;;;;;;;8.27;6.03;;;8.10;99.90;;;;;;4974290;28;20197;-84
2021/11/30 07:28:48;;;;;;;5.00;4.57;;;8.20;99.90;;;;;;4974117;28;20200;-84
2021/11/30 07:31:15;;;;;;;6.35;4.35;;;8.30;99.90;;;;;;4974347;28;20624;-85
2021/11/30 07:33:46;;;;;;;4.65;4.28;;;8.30;99.90;;;;;;4974653;28;20268;-84
2021/11/30 07:36:14;;;;;;;4.20;3.90;;;8.30;99.90;;;;;;4974149;28;20182;-86
2021/11/30 07:38:41;;;;;;;4.32;4.00;;;8.30;99.90;;;;;;4974071;28;20165;-83
2021/11/30 07:41:07;;;;;;;5.03;3.92;;;8.30;99.90;;;;;;4974573;28;20252;-83
2021/11/30 07:43:34;;;;;;;4.82;4.30;;;8.30;99.90;;;;;;4974546;28;20617;-84
2021/11/30 07:46:00;;;;;;;4.82;4.43;;;8.30;99.90;;;;;;4974388;28;20233;-84
2021/11/30 07:48:27;;;;;;;7.63;4.63;;;8.30;99.90;;;;;;4974172;28;20178;-84
2021/11/30 07:50:55;;;;;;;4.78;4.38;;;8.40;99.90;;;;;;4973857;28;20173;-83
2021/11/30 07:53:21;;;;;;;4.63;4.30;;;8.40;99.90;;;;;;4956622;28;20218;-84
2021/11/30 07:55:48;;;;;;;7.15;5.13;;;8.40;99.90;;;;;;4975721;28;20194;-84
2021/11/30 07:58:14;;;;;;;4.75;4.35;;;8.40;99.90;;;;;;4953965;28;20704;-79
2021/11/30 08:00:40;;;;;;;5.18;4.65;;;8.40;99.90;;;;;;4972814;28;20169;-82
2021/11/30 08:03:05;;;;;;;5.30;4.90;;;8.50;99.90;;;;;;4973813;28;20216;-83
2021/11/30 08:05:31;;;;;;;5.18;4.78;;;8.50;99.90;;;;;;4972448;28;20182;-79
2021/11/30 08:07:57;;;;;;;5.40;4.93;;;8.50;99.90;;;;;;4967802;28;20170;-82
2021/11/30 08:10:27;;;;;;;6.00;5.18;;;8.60;99.90;;;;;;4954552;29;20174;-78
2021/11/30 08:12:53;;;;;;;6.38;5.72;;;8.60;99.90;;;;;;4954701;29;20166;-84
2021/11/30 08:15:19;;;;;;;5.47;4.93;;;8.60;99.90;;;;;;4954122;29;20201;-81
2021/11/30 08:17:45;;;;;;;6.90;5.03;;;8.80;99.90;;;;;;4954136;29;20537;-77
2021/11/30 08:20:11;;;;;;;10.60;5.32;;;8.80;99.90;;;;;;4954507;28;20185;-82
2021/11/30 08:22:38;;;;;;;8.45;5.55;;;8.70;99.90;;;;;;4957198;29;20217;-83
2021/11/30 08:25:04;;;;;;;8.13;5.57;;;8.70;99.90;;;;;;4958232;29;20171;-81
2021/11/30 08:27:30;;;;;;;6.80;6.07;;;8.70;99.90;;;;;;4941098;29;20205;-81
2021/11/30 08:29:56;;;;;;;6.65;6.05;;;8.70;99.90;;;;;;4957947;29;20174;-82
2021/11/30 08:32:23;;;;;;;6.80;6.05;;;8.60;99.90;;;;;;4958725;29;20174;-86
2021/11/30 08:34:51;;;;;;;7.47;6.78;;;8.70;99.90;;;;;;4958889;29;20234;-82
2021/11/30 08:37:18;;;;;;;8.60;6.50;;;8.60;99.90;;;;;;4956981;29;20281;-78
2021/11/30 08:39:47;;;;;;;8.50;6.80;;;8.70;99.90;;;;;;4955822;29;20163;-79
2021/11/30 08:42:13;;;;;;;18.58;6.60;;;8.70;99.90;;;;;;4957576;29;20222;-80
2021/11/30 08:44:39;;;;;;;7.70;6.15;;;8.80;99.90;;;;;;4957269;29;20174;-80
2021/11/30 08:47:08;;;;;;;13.50;7.43;;;8.80;99.90;;;;;;4956985;29;20194;-79
2021/11/30 08:49:34;;;;;;;8.07;7.10;;;8.80;99.90;;;;;;4957426;29;20179;-84
2021/11/30 08:52:00;;;;;;;7.90;7.20;;;8.80;99.90;;;;;;4957373;29;20572;-84
2021/11/30 08:54:28;;;;;;;11.30;7.13;;;8.80;99.90;;;;;;4957832;29;20316;-83
2021/11/30 08:56:55;;;;;;;11.57;8.05;;;8.90;99.90;;;;;;4957711;29;20194;-83
2021/11/30 08:59:21;;;;;;;14.13;8.07;;;8.90;99.90;;;;;;4957850;29;20630;-82
2021/11/30 09:01:47;;;;;;;8.98;7.93;;;8.90;99.90;;;;;;4958222;29;20181;-83
2021/11/30 09:04:13;;;;;;;8.77;7.70;;;9.00;99.90;;;;;;4952312;29;20171;-81
2021/11/30 09:06:39;;;;;;;11.55;8.32;;;9.00;99.90;;;;;;4975162;29;20269;-79
2021/11/30 09:09:07;;;;;;;9.85;8.85;;;9.10;99.90;;;;;;4957918;29;20228;-79
2021/11/30 09:11:33;;;;;;;8.32;7.47;;;9.10;99.90;;;;;;4940071;29;20566;-80
2021/11/30 09:13:59;;;;;;;10.00;8.57;;;9.10;99.90;;;;;;4956945;29;20203;-78
2021/11/30 09:16:25;;;;;;;18.10;9.02;;;9.10;99.90;;;;;;4956900;29;20198;-78
2021/11/30 09:18:52;;;;;;;16.48;8.95;;;9.20;99.90;;;;;;4957165;29;20185;-79
2021/11/30 09:21:18;;;;;;;16.88;9.00;;;9.30;99.90;;;;;;4939656;29;20166;-83
2021/11/30 09:23:45;;;;;;;9.80;8.10;;;9.30;99.90;;;;;;4956217;29;20228;-78
2021/11/30 09:26:12;;;;;;;12.50;8.18;;;9.30;99.90;;;;;;4955385;29;20194;-79
2021/11/30 09:28:38;;;;;;;13.75;7.97;;;9.20;99.90;;;;;;4938697;29;20170;-79
2021/11/30 09:31:04;;;;;;;10.40;7.45;;;9.20;99.90;;;;;;4955571;29;20173;-83
2021/11/30 09:33:30;;;;;;;9.35;7.88;;;9.30;99.90;;;;;;4955067;28;20202;-85
2021/11/30 09:35:56;;;;;;;18.58;7.53;;;9.30;99.90;;;;;;4955825;28;20198;-85
2021/11/30 09:38:21;;;;;;;15.35;8.38;;;9.30;99.90;;;;;;4974432;28;20177;-85
2021/11/30 09:40:49;;;;;;;8.30;7.18;;;9.30;99.90;;;;;;4974616;28;20178;-88
2021/11/30 09:43:14;;;;;;;8.68;7.55;;;9.30;99.90;;;;;;4976356;28;20169;-86
2021/11/30 09:45:42;;;;;;;10.15;6.80;;;9.30;99.90;;;;;;4975475;28;20196;-84
2021/11/30 09:48:11;;;;;;;12.75;7.50;;;9.30;99.90;;;;;;4975406;28;20166;-84
2021/11/30 09:50:39;;;;;;;9.60;7.00;;;9.30;99.90;;;;;;4975323;28;20169;-85
2021/11/30 09:53:06;;;;;;;7.90;6.43;;;9.40;99.90;;;;;;4975814;28;20726;-85
2021/11/30 09:55:32;;;;;;;9.82;6.90;;;9.40;99.90;;;;;;4975245;28;20168;-86
2021/11/30 09:57:58;;;;;;;7.43;6.72;;;9.50;99.90;;;;;;4974754;28;20177;-81
2021/11/30 10:00:25;;;;;;;10.95;6.60;;;9.50;99.90;;;;;;4974478;28;20256;-80
2021/11/30 10:02:54;;;;;;;8.13;7.30;;;9.50;99.90;;;;;;4974624;28;20166;-82
2021/11/30 10:05:20;;;;;;;9.38;7.00;;;9.50;99.90;;;;;;4957114;28;20201;-81
2021/11/30 10:07:50;;;;;;;9.70;6.45;;;9.60;99.90;;;;;;4974516;28;20170;-81
2021/11/30 10:10:23;;;;;;;8.80;7.00;;;9.60;99.90;;;;;;4957223;28;20178;-81
2021/11/30 10:13:00;;;;;;;10.35;7.32;;;9.70;99.90;;;;;;4956964;28;20170;-81
2021/11/30 10:15:28;;;;;;;7.53;6.88;;;9.70;99.90;;;;;;4957016;28;20207;-79
2021/11/30 10:18:16;;;;;;;13.32;7.25;;;9.70;99.90;;;;;;4973099;28;20647;-81
2021/11/30 10:20:42;;;;;;;12.55;6.75;;;9.60;99.90;;;;;;4974589;28;20177;-81
2021/11/30 10:23:08;;;;;;;10.38;6.57;;;9.60;99.90;;;;;;4935464;28;1144998;-81
2021/11/30 10:25:36;;;;;;;8.57;7.22;;;9.70;99.90;;;;;;4975153;28;20205;-81
2021/11/30 10:28:06;;;;;;;9.10;6.80;;;9.70;99.90;;;;;;4960054;28;20176;-80
2021/11/30 10:30:37;;;;;;;7.72;7.05;;;9.80;99.90;;;;;;4957642;28;20177;-80
2021/11/30 10:33:18;;;;;;;11.38;6.55;;;9.70;99.90;;;;;;4957440;28;20253;-80
2021/11/30 10:35:45;;;;;;;8.68;6.28;;;9.80;99.90;;;;;;4977368;28;20197;-83
2021/11/30 10:38:11;;;;;;;8.68;6.05;;;9.80;99.90;;;;;;4957658;28;20201;-82
2021/11/30 10:40:39;;;;;;;8.82;5.63;;;10.00;99.90;;;;;;4975026;28;20178;-81
2021/11/30 10:43:08;;;;;;;6.47;5.97;;;9.90;99.90;;;;;;4957146;28;20170;-81
2021/11/30 10:45:40;;;;;;;14.85;6.82;;;10.00;99.90;;;;;;4973805;28;20194;-82
2021/11/30 10:48:19;;;;;;;8.60;7.65;;;10.00;99.90;;;;;;4957350;28;20237;-81
2021/11/30 10:50:44;;;;;;;9.82;5.70;;;10.10;99.90;;;;;;4974258;28;20543;-80
2021/11/30 10:53:26;;;;;;;6.30;5.70;;;10.10;99.90;;;;;;4974356;28;20205;-79
2021/11/30 10:56:03;;;;;;;6.45;5.85;;;10.00;99.90;;;;;;4974247;28;20197;-81
2021/11/30 10:58:31;;;;;;;8.80;6.88;;;10.10;99.90;;;;;;4957237;28;20184;-81
2021/11/30 11:00:59;;;;;;;7.57;5.72;;;10.10;99.90;;;;;;4974510;28;20253;-81
2021/11/30 11:03:26;;;;;;;12.05;9.25;;;10.10;99.90;;;;;;4957228;28;20638;-81
2021/11/30 11:08:43;;;;;;;7.95;6.20;;;10.10;99.90;;;;;;4974824;28;20261;-81
2021/11/30 11:11:10;;;;;;;6.57;5.97;;;10.00;99.90;;;;;;4957026;28;20169;-82
2021/11/30 11:13:38;;;;;;;9.07;6.28;;;10.10;99.90;;;;;;4957112;28;20217;-83
2021/11/30 11:16:06;;;;;;;7.38;6.68;;;10.10;99.90;;;;;;4974962;28;20731;-82
2021/11/30 11:18:39;;;;;;;6.93;6.25;;;10.20;99.90;;;;;;4958524;28;20174;-83
2021/11/30 11:21:38;;;;;;;11.35;8.57;;;10.20;99.90;;;;;;4974081;28;20170;-83
2021/11/30 11:24:13;;;;;;;10.85;6.18;;;10.20;99.90;;;;;;4957842;28;20252;-79
2021/11/30 11:26:45;;;;;;;10.43;6.03;;;10.20;99.90;;;;;;4974440;28;20216;-83
2021/11/30 11:29:15;;;;;;;9.18;6.05;;;10.20;99.90;;;;;;4949782;28;20641;-81
2021/11/30 11:31:47;;;;;;;11.60;7.32;;;10.30;99.90;;;;;;4960378;29;20238;-84
2021/11/30 11:34:15;;;;;;;9.07;6.80;;;10.40;99.90;;;;;;4975447;29;20214;-78
2021/11/30 11:36:43;;;;;;;9.50;7.50;;;10.40;99.90;;;;;;4966080;29;20250;-87
2021/11/30 11:39:08;;;;;;;8.35;6.72;;;10.40;99.90;;;;;;4941603;29;20529;-87
2021/11/30 11:41:34;;;;;;;8.50;7.70;;;10.30;99.90;;;;;;4956073;29;20170;-86
2021/11/30 11:44:00;;;;;;;9.68;8.68;;;10.30;99.90;;;;;;4957415;29;20732;-88
2021/11/30 11:46:32;;;;;;;15.82;6.65;;;10.30;99.90;;;;;;4956435;29;20221;-88
2021/11/30 11:49:05;;;;;;;7.47;6.75;;;10.30;99.90;;;;;;4957263;29;20174;-86
2021/11/30 11:51:43;;;;;;;9.13;6.65;;;10.30;99.90;;;;;;4956321;29;20589;-86
2021/11/30 11:54:32;;;;;;;7.68;6.95;;;10.40;99.90;;;;;;4956811;29;20233;-88
2021/11/30 11:57:01;;;;;;;9.40;7.60;;;10.40;99.90;;;;;;4946760;29;20226;-85
2021/11/30 11:59:43;;;;;;;11.55;6.70;;;10.40;99.90;;;;;;4941119;29;20190;-87
2021/11/30 12:02:30;;;;;;;7.97;6.80;;;10.40;99.90;;;;;;4955486;29;20265;-87
2021/11/30 12:05:00;;;;;;;7.90;7.13;;;10.40;99.90;;;;;;4959084;29;20178;-83
2021/11/30 12:07:47;;;;;;;7.13;6.45;;;10.40;99.90;;;;;;4958449;29;20221;-85
2021/11/30 12:10:26;;;;;;;17.27;7.72;;;10.40;99.90;;;;;;4966350;29;20659;-88
2021/11/30 12:12:55;;;;;;;14.48;7.40;;;10.40;99.90;;;;;;4944451;29;20182;-85
2021/11/30 12:15:23;;;;;;;10.43;7.82;;;10.40;99.90;;;;;;4929274;29;20629;-84
2021/11/30 12:17:49;;;;;;;7.43;6.78;;;10.40;99.90;;;;;;4968255;29;20205;-83
2021/11/30 12:20:15;;;;;;;7.63;6.55;;;10.40;99.90;;;;;;4961239;29;20179;-86
2021/11/30 12:22:56;;;;;;;7.57;5.10;;;10.50;99.90;;;;;;4961399;29;20720;-86
2021/11/30 12:25:32;;;;;;;10.57;5.85;;;10.50;99.90;;;;;;4962534;29;20174;-83
2021/11/30 12:28:01;;;;;;;10.75;6.13;;;10.40;99.90;;;;;;4965207;29;20702;-82
2021/11/30 12:30:47;;;;;;;8.90;5.63;;;10.30;99.90;;;;;;4965866;29;20197;-79
2021/11/30 12:33:23;;;;;;;10.23;6.47;;;10.40;99.90;;;;;;4951726;29;20206;-85
2021/11/30 12:36:06;;;;;;;21.42;7.47;;;10.40;99.90;;;;;;4955258;29;20206;-85
2021/11/30 12:38:53;;;;;;;5.78;5.30;;;10.40;99.90;;;;;;4955045;29;20366;-82
2021/11/30 12:41:45;;;;;;;8.23;5.28;;;10.40;99.90;;;;;;4954096;28;20197;-85
2021/11/30 12:44:17;;;;;;;17.83;6.30;;;10.30;99.90;;;;;;4955034;29;20254;-83
2021/11/30 12:46:57;;;;;;;8.90;7.57;;;10.30;99.90;;;;;;4953352;29;20189;-83
2021/11/30 12:49:29;;;;;;;8.18;5.78;;;10.30;99.90;;;;;;4953807;28;20170;-81
2021/11/30 12:52:13;;;;;;;6.97;6.38;;;10.30;99.90;;;;;;4964158;28;20186;-85
2021/11/30 12:54:43;;;;;;;7.40;6.55;;;10.30;99.90;;;;;;4936682;29;20593;-80
2021/11/30 12:57:12;;;;;;;7.18;6.22;;;10.20;99.90;;;;;;4961689;28;20337;-79
2021/11/30 12:59:37;;;;;;;9.30;7.43;;;10.30;99.90;;;;;;4950141;29;20202;-81
2021/11/30 13:02:41;;;;;;;12.88;6.18;;;10.30;99.90;;;;;;4953637;29;20546;-83
2021/11/30 13:05:14;;;;;;;7.95;6.40;;;10.40;99.90;;;;;;4936851;29;20523;-82
2021/11/30 13:07:49;;;;;;;11.20;7.72;;;10.30;99.90;;;;;;4955546;28;20182;-81
2021/11/30 13:10:33;;;;;;;10.30;6.90;;;10.30;99.90;;;;;;4968161;28;20264;-80
2021/11/30 13:13:00;;;;;;;7.15;6.47;;;10.30;99.90;;;;;;4975568;28;20182;-81
2021/11/30 13:15:26;;;;;;;16.50;6.47;;;10.40;99.90;;;;;;4959188;28;20185;-83
2021/11/30 13:17:54;;;;;;;7.82;6.38;;;10.40;99.90;;;;;;4954878;28;20171;-81
2021/11/30 13:20:27;;;;;;;7.65;6.95;;;10.40;99.90;;;;;;4956328;28;20669;-82